CheckWX is a tool to help pilots better visualize weather data.  It is not intended as a substitute for an official pre-flight weather briefing.

22:50:02 UTC

KRNO TAF
Reno / Tahoe International Airport
Reno, Nevada, USA
KRNO 051736Z 0518/0618 VRB03KT 1/4SM FG VV003 FM052000 VRB03KT 1SM BR SCT010 OVC020 FM060800 VRB03KT 1/2SM FG BKN005 OVC015

Dec-5@
18:00 UTC

Dec-5 @ 18:00 UTC

Dec-5@
20:00 UTC

Dec-5 @ 20:00 UTC

KRNO 051736Z 0518/0618 VRB03KT 1/4SM FG VV003

Expired

Wind
  • Variable at 3 KTS
Conditions
Fog
Cloud Levels
  • Vertical visibility at 300' AGL

Dec-5@
20:00 UTC

Dec-5 @ 20:00 UTC

Dec-6@
08:00 UTC

Dec-6 @ 08:00 UTC

FM052000 VRB03KT 1SM BR SCT010 OVC020

From

From Standard forecast or significant change

Wind
  • Variable at 3 KTS
Conditions
Mist
Cloud Levels
  • Scattered at 1,000' AGL
  • Overcast at 2,000' AGL

Dec-6@
08:00 UTC

Dec-6 @ 08:00 UTC

Dec-6@
18:00 UTC

Dec-6 @ 18:00 UTC

FM060800 VRB03KT 1/2SM FG BKN005 OVC015

From

From Standard forecast or significant change

Wind
  • Variable at 3 KTS
Conditions
Fog
Cloud Levels
  • Broken at 500' AGL
  • Overcast at 1,500' AGL